sensor_id;sensor_type;location;lat;lon;timestamp;P1;durP1;ratioP1;P2;durP2;ratioP2
31537;SDS011;18147;51.952;6.146;2024-03-06T00:00:14;94.80;;;51.88;;
31537;SDS011;18147;51.952;6.146;2024-03-06T00:02:40;104.88;;;54.10;;
31537;SDS011;18147;51.952;6.146;2024-03-06T00:05:06;106.75;;;56.63;;
31537;SDS011;18147;51.952;6.146;2024-03-06T00:07:32;111.05;;;54.20;;
31537;SDS011;18147;51.952;6.146;2024-03-06T00:09:58;99.68;;;50.47;;
31537;SDS011;18147;51.952;6.146;2024-03-06T00:12:23;98.55;;;50.28;;
31537;SDS011;18147;51.952;6.146;2024-03-06T00:14:49;102.30;;;50.95;;
31537;SDS011;18147;51.952;6.146;2024-03-06T00:17:14;97.50;;;54.33;;
31537;SDS011;18147;51.952;6.146;2024-03-06T00:19:40;104.32;;;54.63;;
31537;SDS011;18147;51.952;6.146;2024-03-06T00:22:06;107.00;;;55.85;;
31537;SDS011;18147;51.952;6.146;2024-03-06T00:24:31;115.70;;;57.45;;
31537;SDS011;18147;51.952;6.146;2024-03-06T00:26:57;104.45;;;55.13;;
31537;SDS011;18147;51.952;6.146;2024-03-06T00:29:23;114.88;;;59.90;;
31537;SDS011;18147;51.952;6.146;2024-03-06T00:31:48;106.78;;;56.75;;
31537;SDS011;18147;51.952;6.146;2024-03-06T00:34:14;118.20;;;59.70;;
31537;SDS011;18147;51.952;6.146;2024-03-06T00:36:40;124.75;;;61.45;;
31537;SDS011;18147;51.952;6.146;2024-03-06T00:39:06;102.68;;;56.58;;
31537;SDS011;18147;51.952;6.146;2024-03-06T00:41:33;111.47;;;58.13;;
31537;SDS011;18147;51.952;6.146;2024-03-06T00:43:59;109.45;;;58.25;;
31537;SDS011;18147;51.952;6.146;2024-03-06T00:46:24;101.13;;;51.90;;
31537;SDS011;18147;51.952;6.146;2024-03-06T00:48:50;116.80;;;56.95;;
31537;SDS011;18147;51.952;6.146;2024-03-06T00:51:15;109.78;;;54.92;;
31537;SDS011;18147;51.952;6.146;2024-03-06T00:53:41;110.20;;;55.70;;
31537;SDS011;18147;51.952;6.146;2024-03-06T00:56:06;109.68;;;55.90;;
31537;SDS011;18147;51.952;6.146;2024-03-06T00:58:32;112.28;;;55.30;;
31537;SDS011;18147;51.952;6.146;2024-03-06T01:00:57;111.22;;;58.42;;
31537;SDS011;18147;51.952;6.146;2024-03-06T01:03:23;120.03;;;60.85;;
31537;SDS011;18147;51.952;6.146;2024-03-06T01:05:49;120.25;;;59.50;;
31537;SDS011;18147;51.952;6.146;2024-03-06T01:08:15;120.10;;;60.47;;
31537;SDS011;18147;51.952;6.146;2024-03-06T01:10:43;110.55;;;57.50;;
31537;SDS011;18147;51.952;6.146;2024-03-06T01:13:08;121.28;;;60.45;;
31537;SDS011;18147;51.952;6.146;2024-03-06T01:15:36;113.47;;;59.72;;
31537;SDS011;18147;51.952;6.146;2024-03-06T01:18:04;115.03;;;59.65;;
31537;SDS011;18147;51.952;6.146;2024-03-06T01:20:29;119.20;;;60.80;;
31537;SDS011;18147;51.952;6.146;2024-03-06T01:22:55;138.40;;;64.65;;
31537;SDS011;18147;51.952;6.146;2024-03-06T01:25:20;128.00;;;63.45;;
31537;SDS011;18147;51.952;6.146;2024-03-06T01:27:47;131.23;;;65.35;;
31537;SDS011;18147;51.952;6.146;2024-03-06T01:30:14;136.77;;;67.45;;
31537;SDS011;18147;51.952;6.146;2024-03-06T01:32:39;130.98;;;66.55;;
31537;SDS011;18147;51.952;6.146;2024-03-06T01:35:05;121.57;;;63.50;;
31537;SDS011;18147;51.952;6.146;2024-03-06T01:37:31;115.75;;;58.70;;
31537;SDS011;18147;51.952;6.146;2024-03-06T01:39:57;108.55;;;53.88;;
31537;SDS011;18147;51.952;6.146;2024-03-06T01:42:22;99.93;;;51.40;;
31537;SDS011;18147;51.952;6.146;2024-03-06T01:44:48;93.45;;;50.53;;
31537;SDS011;18147;51.952;6.146;2024-03-06T01:47:13;112.53;;;54.55;;
31537;SDS011;18147;51.952;6.146;2024-03-06T01:49:39;96.65;;;51.50;;
31537;SDS011;18147;51.952;6.146;2024-03-06T01:52:05;88.78;;;49.95;;
31537;SDS011;18147;51.952;6.146;2024-03-06T01:54:31;83.80;;;49.20;;
31537;SDS011;18147;51.952;6.146;2024-03-06T01:56:57;87.53;;;50.13;;
31537;SDS011;18147;51.952;6.146;2024-03-06T01:59:25;92.15;;;50.25;;
31537;SDS011;18147;51.952;6.146;2024-03-06T02:01:54;87.68;;;51.85;;
31537;SDS011;18147;51.952;6.146;2024-03-06T02:04:20;87.05;;;47.92;;
31537;SDS011;18147;51.952;6.146;2024-03-06T02:06:45;96.65;;;49.97;;
31537;SDS011;18147;51.952;6.146;2024-03-06T02:09:12;69.05;;;42.15;;
31537;SDS011;18147;51.952;6.146;2024-03-06T02:11:39;48.33;;;31.60;;
31537;SDS011;18147;51.952;6.146;2024-03-06T02:14:05;59.53;;;36.17;;
31537;SDS011;18147;51.952;6.146;2024-03-06T02:16:34;73.57;;;42.70;;
31537;SDS011;18147;51.952;6.146;2024-03-06T02:19:00;73.35;;;43.88;;
31537;SDS011;18147;51.952;6.146;2024-03-06T02:21:26;117.20;;;53.17;;
31537;SDS011;18147;51.952;6.146;2024-03-06T02:23:52;88.15;;;49.95;;
31537;SDS011;18147;51.952;6.146;2024-03-06T02:26:18;92.45;;;50.85;;
31537;SDS011;18147;51.952;6.146;2024-03-06T02:28:47;107.82;;;54.10;;
31537;SDS011;18147;51.952;6.146;2024-03-06T02:31:14;73.97;;;43.15;;
31537;SDS011;18147;51.952;6.146;2024-03-06T02:33:40;61.80;;;35.22;;
31537;SDS011;18147;51.952;6.146;2024-03-06T02:36:05;54.05;;;33.83;;
31537;SDS011;18147;51.952;6.146;2024-03-06T02:38:31;95.10;;;44.95;;
31537;SDS011;18147;51.952;6.146;2024-03-06T02:40:56;61.00;;;36.03;;
31537;SDS011;18147;51.952;6.146;2024-03-06T02:43:22;72.80;;;40.95;;
31537;SDS011;18147;51.952;6.146;2024-03-06T02:45:47;45.88;;;30.00;;
31537;SDS011;18147;51.952;6.146;2024-03-06T02:48:13;61.33;;;37.40;;
31537;SDS011;18147;51.952;6.146;2024-03-06T02:50:38;36.95;;;25.50;;
31537;SDS011;18147;51.952;6.146;2024-03-06T02:53:03;57.20;;;29.00;;
31537;SDS011;18147;51.952;6.146;2024-03-06T02:55:29;135.95;;;28.90;;
31537;SDS011;18147;51.952;6.146;2024-03-06T02:57:55;522.70;;;51.90;;
31537;SDS011;18147;51.952;6.146;2024-03-06T03:00:20;432.60;;;52.30;;
31537;SDS011;18147;51.952;6.146;2024-03-06T03:02:47;387.40;;;48.05;;
31537;SDS011;18147;51.952;6.146;2024-03-06T03:05:12;339.70;;;42.58;;
31537;SDS011;18147;51.952;6.146;2024-03-06T03:07:37;492.48;;;54.15;;
31537;SDS011;18147;51.952;6.146;2024-03-06T03:10:03;326.73;;;45.00;;
31537;SDS011;18147;51.952;6.146;2024-03-06T03:12:29;363.33;;;44.10;;
31537;SDS011;18147;51.952;6.146;2024-03-06T03:14:55;603.88;;;62.47;;
31537;SDS011;18147;51.952;6.146;2024-03-06T03:17:20;479.83;;;55.13;;
31537;SDS011;18147;51.952;6.146;2024-03-06T03:19:46;407.13;;;50.97;;
31537;SDS011;18147;51.952;6.146;2024-03-06T03:22:11;354.90;;;45.20;;
31537;SDS011;18147;51.952;6.146;2024-03-06T03:24:38;405.30;;;46.13;;
31537;SDS011;18147;51.952;6.146;2024-03-06T03:27:06;453.27;;;49.72;;
31537;SDS011;18147;51.952;6.146;2024-03-06T03:29:31;395.02;;;46.45;;
31537;SDS011;18147;51.952;6.146;2024-03-06T03:31:58;391.30;;;44.33;;
31537;SDS011;18147;51.952;6.146;2024-03-06T03:34:23;337.83;;;39.78;;
31537;SDS011;18147;51.952;6.146;2024-03-06T03:36:48;409.90;;;42.40;;
31537;SDS011;18147;51.952;6.146;2024-03-06T03:39:14;417.95;;;41.47;;
31537;SDS011;18147;51.952;6.146;2024-03-06T03:41:46;549.13;;;51.97;;
31537;SDS011;18147;51.952;6.146;2024-03-06T03:44:21;554.55;;;51.65;;
31537;SDS011;18147;51.952;6.146;2024-03-06T03:46:46;684.53;;;59.08;;
31537;SDS011;18147;51.952;6.146;2024-03-06T03:49:12;684.47;;;62.60;;
31537;SDS011;18147;51.952;6.146;2024-03-06T03:51:38;557.05;;;50.65;;
31537;SDS011;18147;51.952;6.146;2024-03-06T03:54:04;438.52;;;44.28;;
31537;SDS011;18147;51.952;6.146;2024-03-06T03:56:30;548.38;;;49.08;;
31537;SDS011;18147;51.952;6.146;2024-03-06T03:58:57;374.30;;;41.90;;
31537;SDS011;18147;51.952;6.146;2024-03-06T04:01:25;619.13;;;62.63;;
31537;SDS011;18147;51.952;6.146;2024-03-06T04:03:51;434.35;;;50.30;;
31537;SDS011;18147;51.952;6.146;2024-03-06T04:06:16;440.23;;;44.10;;
31537;SDS011;18147;51.952;6.146;2024-03-06T04:08:42;525.33;;;51.28;;
31537;SDS011;18147;51.952;6.146;2024-03-06T04:11:08;499.48;;;49.63;;
31537;SDS011;18147;51.952;6.146;2024-03-06T04:13:37;360.88;;;44.05;;
31537;SDS011;18147;51.952;6.146;2024-03-06T04:16:03;474.48;;;49.30;;
31537;SDS011;18147;51.952;6.146;2024-03-06T04:18:29;386.05;;;45.15;;
31537;SDS011;18147;51.952;6.146;2024-03-06T04:20:59;372.40;;;43.65;;
31537;SDS011;18147;51.952;6.146;2024-03-06T04:23:27;496.73;;;53.28;;
31537;SDS011;18147;51.952;6.146;2024-03-06T04:25:52;414.25;;;47.63;;
31537;SDS011;18147;51.952;6.146;2024-03-06T04:28:18;511.45;;;53.80;;
31537;SDS011;18147;51.952;6.146;2024-03-06T04:30:43;443.83;;;43.50;;
31537;SDS011;18147;51.952;6.146;2024-03-06T04:33:12;430.67;;;43.45;;
31537;SDS011;18147;51.952;6.146;2024-03-06T04:35:40;393.88;;;45.40;;
31537;SDS011;18147;51.952;6.146;2024-03-06T04:38:05;389.58;;;42.30;;
31537;SDS011;18147;51.952;6.146;2024-03-06T04:40:31;352.63;;;41.17;;
31537;SDS011;18147;51.952;6.146;2024-03-06T04:42:57;396.00;;;40.97;;
31537;SDS011;18147;51.952;6.146;2024-03-06T04:45:25;331.45;;;37.88;;
31537;SDS011;18147;51.952;6.146;2024-03-06T04:47:51;456.50;;;45.30;;
31537;SDS011;18147;51.952;6.146;2024-03-06T04:50:16;419.88;;;45.92;;
31537;SDS011;18147;51.952;6.146;2024-03-06T04:52:42;353.25;;;40.35;;
31537;SDS011;18147;51.952;6.146;2024-03-06T04:55:09;229.45;;;36.67;;
31537;SDS011;18147;51.952;6.146;2024-03-06T04:57:36;265.58;;;37.30;;
31537;SDS011;18147;51.952;6.146;2024-03-06T05:00:02;221.85;;;37.35;;
31537;SDS011;18147;51.952;6.146;2024-03-06T05:02:31;310.30;;;48.05;;
31537;SDS011;18147;51.952;6.146;2024-03-06T05:04:59;196.90;;;39.97;;
31537;SDS011;18147;51.952;6.146;2024-03-06T05:07:26;242.05;;;42.10;;
31537;SDS011;18147;51.952;6.146;2024-03-06T05:09:53;224.48;;;38.97;;
31537;SDS011;18147;51.952;6.146;2024-03-06T05:12:19;212.23;;;38.13;;
31537;SDS011;18147;51.952;6.146;2024-03-06T05:14:44;275.17;;;37.60;;
31537;SDS011;18147;51.952;6.146;2024-03-06T05:17:09;282.13;;;37.53;;
31537;SDS011;18147;51.952;6.146;2024-03-06T05:19:35;323.67;;;42.50;;
31537;SDS011;18147;51.952;6.146;2024-03-06T05:22:02;308.58;;;46.13;;
31537;SDS011;18147;51.952;6.146;2024-03-06T05:24:28;211.70;;;36.92;;
31537;SDS011;18147;51.952;6.146;2024-03-06T05:26:53;399.13;;;49.95;;
31537;SDS011;18147;51.952;6.146;2024-03-06T05:29:19;215.20;;;34.55;;
31537;SDS011;18147;51.952;6.146;2024-03-06T05:31:45;413.15;;;51.88;;
31537;SDS011;18147;51.952;6.146;2024-03-06T05:34:10;397.80;;;48.65;;
31537;SDS011;18147;51.952;6.146;2024-03-06T05:36:36;491.38;;;56.50;;
31537;SDS011;18147;51.952;6.146;2024-03-06T05:39:01;365.40;;;55.35;;
31537;SDS011;18147;51.952;6.146;2024-03-06T05:41:31;195.13;;;40.92;;
31537;SDS011;18147;51.952;6.146;2024-03-06T05:43:57;341.95;;;62.95;;
31537;SDS011;18147;51.952;6.146;2024-03-06T05:46:22;131.43;;;38.20;;
31537;SDS011;18147;51.952;6.146;2024-03-06T05:48:47;271.02;;;48.95;;
31537;SDS011;18147;51.952;6.146;2024-03-06T05:51:13;169.73;;;36.40;;
31537;SDS011;18147;51.952;6.146;2024-03-06T05:53:38;154.75;;;33.15;;
31537;SDS011;18147;51.952;6.146;2024-03-06T05:56:06;108.95;;;33.88;;
31537;SDS011;18147;51.952;6.146;2024-03-06T05:58:31;95.13;;;38.78;;
31537;SDS011;18147;51.952;6.146;2024-03-06T06:00:57;150.60;;;44.67;;
31537;SDS011;18147;51.952;6.146;2024-03-06T06:03:22;130.88;;;46.20;;
31537;SDS011;18147;51.952;6.146;2024-03-06T06:05:47;248.18;;;45.40;;
31537;SDS011;18147;51.952;6.146;2024-03-06T06:08:13;96.75;;;30.77;;
31537;SDS011;18147;51.952;6.146;2024-03-06T06:10:38;140.32;;;34.47;;
31537;SDS011;18147;51.952;6.146;2024-03-06T06:13:04;97.88;;;32.33;;
31537;SDS011;18147;51.952;6.146;2024-03-06T06:15:30;179.57;;;40.70;;
31537;SDS011;18147;51.952;6.146;2024-03-06T06:17:55;130.95;;;33.90;;
31537;SDS011;18147;51.952;6.146;2024-03-06T06:20:21;134.80;;;34.03;;
31537;SDS011;18147;51.952;6.146;2024-03-06T06:22:46;225.30;;;39.33;;
31537;SDS011;18147;51.952;6.146;2024-03-06T06:25:12;212.73;;;37.45;;
31537;SDS011;18147;51.952;6.146;2024-03-06T06:27:37;192.40;;;35.55;;
31537;SDS011;18147;51.952;6.146;2024-03-06T06:30:03;213.63;;;36.15;;
31537;SDS011;18147;51.952;6.146;2024-03-06T06:32:29;237.57;;;37.83;;
31537;SDS011;18147;51.952;6.146;2024-03-06T06:34:55;371.48;;;44.03;;
31537;SDS011;18147;51.952;6.146;2024-03-06T06:37:21;376.88;;;48.70;;
31537;SDS011;18147;51.952;6.146;2024-03-06T06:39:46;404.70;;;51.58;;
31537;SDS011;18147;51.952;6.146;2024-03-06T06:42:13;305.65;;;39.67;;
31537;SDS011;18147;51.952;6.146;2024-03-06T06:44:38;262.92;;;40.13;;
31537;SDS011;18147;51.952;6.146;2024-03-06T06:47:04;222.48;;;37.78;;
31537;SDS011;18147;51.952;6.146;2024-03-06T06:49:29;176.00;;;35.92;;
31537;SDS011;18147;51.952;6.146;2024-03-06T06:51:55;168.05;;;35.33;;
31537;SDS011;18147;51.952;6.146;2024-03-06T06:54:20;179.90;;;35.60;;
31537;SDS011;18147;51.952;6.146;2024-03-06T06:56:46;262.80;;;42.35;;
31537;SDS011;18147;51.952;6.146;2024-03-06T06:59:11;339.50;;;51.03;;
31537;SDS011;18147;51.952;6.146;2024-03-06T07:01:38;331.52;;;45.45;;
31537;SDS011;18147;51.952;6.146;2024-03-06T07:04:05;325.40;;;44.75;;
31537;SDS011;18147;51.952;6.146;2024-03-06T07:06:31;357.05;;;43.15;;
31537;SDS011;18147;51.952;6.146;2024-03-06T07:08:56;390.38;;;50.50;;
31537;SDS011;18147;51.952;6.146;2024-03-06T07:11:22;305.25;;;42.78;;
31537;SDS011;18147;51.952;6.146;2024-03-06T07:13:48;347.05;;;47.78;;
31537;SDS011;18147;51.952;6.146;2024-03-06T07:16:13;310.10;;;45.65;;
31537;SDS011;18147;51.952;6.146;2024-03-06T07:18:39;243.23;;;41.20;;
31537;SDS011;18147;51.952;6.146;2024-03-06T07:21:05;285.70;;;44.88;;
31537;SDS011;18147;51.952;6.146;2024-03-06T07:23:30;261.02;;;42.90;;
31537;SDS011;18147;51.952;6.146;2024-03-06T07:25:56;239.02;;;37.95;;
31537;SDS011;18147;51.952;6.146;2024-03-06T07:28:22;226.20;;;38.75;;
31537;SDS011;18147;51.952;6.146;2024-03-06T07:30:48;154.77;;;34.80;;
31537;SDS011;18147;51.952;6.146;2024-03-06T07:33:13;156.98;;;36.03;;
31537;SDS011;18147;51.952;6.146;2024-03-06T07:35:39;144.15;;;34.38;;
31537;SDS011;18147;51.952;6.146;2024-03-06T07:38:05;151.77;;;34.13;;
31537;SDS011;18147;51.952;6.146;2024-03-06T07:40:30;157.80;;;43.80;;
31537;SDS011;18147;51.952;6.146;2024-03-06T07:42:57;154.93;;;44.13;;
31537;SDS011;18147;51.952;6.146;2024-03-06T07:45:24;72.57;;;35.35;;
31537;SDS011;18147;51.952;6.146;2024-03-06T07:47:50;166.27;;;42.20;;
31537;SDS011;18147;51.952;6.146;2024-03-06T07:50:16;175.18;;;39.90;;
31537;SDS011;18147;51.952;6.146;2024-03-06T07:52:45;150.73;;;36.17;;
31537;SDS011;18147;51.952;6.146;2024-03-06T07:55:11;172.70;;;40.65;;
31537;SDS011;18147;51.952;6.146;2024-03-06T07:57:36;181.85;;;42.83;;
31537;SDS011;18147;51.952;6.146;2024-03-06T08:00:02;148.00;;;38.85;;
31537;SDS011;18147;51.952;6.146;2024-03-06T08:02:37;177.30;;;38.67;;
31537;SDS011;18147;51.952;6.146;2024-03-06T08:05:04;178.65;;;40.30;;
31537;SDS011;18147;51.952;6.146;2024-03-06T08:07:30;149.15;;;36.70;;
31537;SDS011;18147;51.952;6.146;2024-03-06T08:09:55;159.25;;;36.50;;
31537;SDS011;18147;51.952;6.146;2024-03-06T08:12:20;203.73;;;38.72;;
31537;SDS011;18147;51.952;6.146;2024-03-06T08:14:46;214.90;;;41.75;;
31537;SDS011;18147;51.952;6.146;2024-03-06T08:17:11;147.88;;;36.28;;
31537;SDS011;18147;51.952;6.146;2024-03-06T08:19:37;139.98;;;32.65;;
31537;SDS011;18147;51.952;6.146;2024-03-06T08:22:02;59.58;;;33.90;;
31537;SDS011;18147;51.952;6.146;2024-03-06T08:24:28;53.08;;;33.58;;
31537;SDS011;18147;51.952;6.146;2024-03-06T08:26:53;58.40;;;34.75;;
31537;SDS011;18147;51.952;6.146;2024-03-06T08:29:19;69.82;;;40.75;;
31537;SDS011;18147;51.952;6.146;2024-03-06T08:31:44;75.60;;;38.95;;
31537;SDS011;18147;51.952;6.146;2024-03-06T08:34:09;88.78;;;40.22;;
31537;SDS011;18147;51.952;6.146;2024-03-06T08:36:35;93.72;;;44.42;;
31537;SDS011;18147;51.952;6.146;2024-03-06T08:39:00;73.93;;;43.70;;
31537;SDS011;18147;51.952;6.146;2024-03-06T08:41:26;126.43;;;51.53;;
31537;SDS011;18147;51.952;6.146;2024-03-06T08:43:51;155.25;;;52.25;;
31537;SDS011;18147;51.952;6.146;2024-03-06T08:46:17;114.90;;;51.08;;
31537;SDS011;18147;51.952;6.146;2024-03-06T08:48:42;103.53;;;52.90;;
31537;SDS011;18147;51.952;6.146;2024-03-06T08:51:08;122.75;;;55.53;;
31537;SDS011;18147;51.952;6.146;2024-03-06T08:53:36;160.82;;;63.97;;
31537;SDS011;18147;51.952;6.146;2024-03-06T08:56:02;140.82;;;56.25;;
31537;SDS011;18147;51.952;6.146;2024-03-06T08:58:27;136.18;;;59.80;;
31537;SDS011;18147;51.952;6.146;2024-03-06T09:00:53;125.90;;;56.08;;
31537;SDS011;18147;51.952;6.146;2024-03-06T09:03:18;165.30;;;62.95;;
31537;SDS011;18147;51.952;6.146;2024-03-06T09:05:44;172.70;;;66.13;;
31537;SDS011;18147;51.952;6.146;2024-03-06T09:08:09;230.05;;;74.82;;
31537;SDS011;18147;51.952;6.146;2024-03-06T09:10:36;220.50;;;71.90;;
31537;SDS011;18147;51.952;6.146;2024-03-06T09:13:02;217.30;;;70.05;;
31537;SDS011;18147;51.952;6.146;2024-03-06T09:15:28;182.15;;;67.90;;
31537;SDS011;18147;51.952;6.146;2024-03-06T09:17:53;210.93;;;73.50;;
31537;SDS011;18147;51.952;6.146;2024-03-06T09:20:19;283.30;;;78.28;;
31537;SDS011;18147;51.952;6.146;2024-03-06T09:22:45;265.83;;;78.78;;
31537;SDS011;18147;51.952;6.146;2024-03-06T09:25:11;196.98;;;70.78;;
31537;SDS011;18147;51.952;6.146;2024-03-06T09:27:38;177.90;;;68.05;;
31537;SDS011;18147;51.952;6.146;2024-03-06T09:30:04;235.65;;;80.47;;
31537;SDS011;18147;51.952;6.146;2024-03-06T09:32:30;188.75;;;69.75;;
31537;SDS011;18147;51.952;6.146;2024-03-06T09:34:55;189.23;;;73.00;;
31537;SDS011;18147;51.952;6.146;2024-03-06T09:37:21;205.48;;;76.00;;
31537;SDS011;18147;51.952;6.146;2024-03-06T09:39:46;186.00;;;70.32;;
31537;SDS011;18147;51.952;6.146;2024-03-06T09:42:12;176.05;;;68.72;;
31537;SDS011;18147;51.952;6.146;2024-03-06T09:44:39;206.95;;;74.68;;
31537;SDS011;18147;51.952;6.146;2024-03-06T09:47:05;190.02;;;73.30;;
31537;SDS011;18147;51.952;6.146;2024-03-06T09:49:31;194.90;;;72.18;;
31537;SDS011;18147;51.952;6.146;2024-03-06T09:51:57;180.68;;;72.03;;
31537;SDS011;18147;51.952;6.146;2024-03-06T09:54:23;179.75;;;73.63;;
31537;SDS011;18147;51.952;6.146;2024-03-06T09:56:51;172.05;;;72.88;;
31537;SDS011;18147;51.952;6.146;2024-03-06T09:59:17;163.68;;;68.13;;
31537;SDS011;18147;51.952;6.146;2024-03-06T10:01:49;170.77;;;72.30;;
31537;SDS011;18147;51.952;6.146;2024-03-06T10:04:22;165.18;;;69.80;;
31537;SDS011;18147;51.952;6.146;2024-03-06T10:06:56;167.75;;;70.07;;
31537;SDS011;18147;51.952;6.146;2024-03-06T10:09:23;174.30;;;70.43;;
31537;SDS011;18147;51.952;6.146;2024-03-06T10:11:48;156.70;;;67.18;;
31537;SDS011;18147;51.952;6.146;2024-03-06T10:14:14;157.45;;;68.70;;
31537;SDS011;18147;51.952;6.146;2024-03-06T10:16:51;149.00;;;65.88;;
31537;SDS011;18147;51.952;6.146;2024-03-06T10:19:34;144.57;;;67.00;;
31537;SDS011;18147;51.952;6.146;2024-03-06T10:22:00;141.23;;;63.10;;
31537;SDS011;18147;51.952;6.146;2024-03-06T10:24:26;140.52;;;63.58;;
31537;SDS011;18147;51.952;6.146;2024-03-06T10:26:56;138.93;;;62.25;;
31537;SDS011;18147;51.952;6.146;2024-03-06T10:29:28;143.57;;;64.20;;
31537;SDS011;18147;51.952;6.146;2024-03-06T10:31:55;132.13;;;59.53;;
31537;SDS011;18147;51.952;6.146;2024-03-06T10:34:25;129.50;;;58.50;;
31537;SDS011;18147;51.952;6.146;2024-03-06T10:37:01;113.22;;;53.22;;
31537;SDS011;18147;51.952;6.146;2024-03-06T10:39:31;121.20;;;57.28;;
31537;SDS011;18147;51.952;6.146;2024-03-06T10:41:59;131.02;;;57.70;;
31537;SDS011;18147;51.952;6.146;2024-03-06T10:44:27;118.85;;;57.00;;
31537;SDS011;18147;51.952;6.146;2024-03-06T10:46:58;117.93;;;57.42;;
31537;SDS011;18147;51.952;6.146;2024-03-06T10:49:25;99.50;;;51.38;;
31537;SDS011;18147;51.952;6.146;2024-03-06T10:51:53;105.50;;;52.00;;
31537;SDS011;18147;51.952;6.146;2024-03-06T10:54:22;103.40;;;52.05;;
31537;SDS011;18147;51.952;6.146;2024-03-06T10:56:51;105.15;;;53.63;;
31537;SDS011;18147;51.952;6.146;2024-03-06T10:59:18;100.90;;;49.58;;
31537;SDS011;18147;51.952;6.146;2024-03-06T11:01:45;106.50;;;52.42;;
31537;SDS011;18147;51.952;6.146;2024-03-06T11:04:12;111.97;;;55.50;;
31537;SDS011;18147;51.952;6.146;2024-03-06T11:06:38;114.03;;;54.47;;
31537;SDS011;18147;51.952;6.146;2024-03-06T11:09:04;102.10;;;51.00;;
31537;SDS011;18147;51.952;6.146;2024-03-06T11:11:31;96.07;;;48.72;;
31537;SDS011;18147;51.952;6.146;2024-03-06T11:14:00;106.50;;;52.63;;
31537;SDS011;18147;51.952;6.146;2024-03-06T11:16:29;104.47;;;50.67;;
31537;SDS011;18147;51.952;6.146;2024-03-06T11:19:07;106.07;;;52.30;;
31537;SDS011;18147;51.952;6.146;2024-03-06T11:21:34;102.20;;;50.85;;
31537;SDS011;18147;51.952;6.146;2024-03-06T11:24:16;105.10;;;50.00;;
31537;SDS011;18147;51.952;6.146;2024-03-06T11:26:42;107.03;;;51.78;;
31537;SDS011;18147;51.952;6.146;2024-03-06T11:29:11;93.32;;;48.97;;
31537;SDS011;18147;51.952;6.146;2024-03-06T11:31:36;103.20;;;51.63;;
31537;SDS011;18147;51.952;6.146;2024-03-06T11:34:03;97.80;;;50.30;;
31537;SDS011;18147;51.952;6.146;2024-03-06T11:36:29;100.03;;;50.55;;
31537;SDS011;18147;51.952;6.146;2024-03-06T11:41:31;96.55;;;50.65;;
31537;SDS011;18147;51.952;6.146;2024-03-06T11:44:00;95.43;;;50.10;;
31537;SDS011;18147;51.952;6.146;2024-03-06T11:49:20;100.43;;;50.20;;
31537;SDS011;18147;51.952;6.146;2024-03-06T11:51:49;95.43;;;49.05;;
31537;SDS011;18147;51.952;6.146;2024-03-06T11:54:18;93.93;;;48.65;;
31537;SDS011;18147;51.952;6.146;2024-03-06T11:56:48;97.72;;;48.83;;
31537;SDS011;18147;51.952;6.146;2024-03-06T11:59:22;98.53;;;51.83;;
31537;SDS011;18147;51.952;6.146;2024-03-06T12:01:49;104.15;;;53.17;;
31537;SDS011;18147;51.952;6.146;2024-03-06T12:04:16;101.22;;;52.42;;
31537;SDS011;18147;51.952;6.146;2024-03-06T12:06:41;104.90;;;51.85;;
31537;SDS011;18147;51.952;6.146;2024-03-06T12:09:06;100.10;;;50.78;;
31537;SDS011;18147;51.952;6.146;2024-03-06T12:11:36;106.95;;;54.25;;
31537;SDS011;18147;51.952;6.146;2024-03-06T12:14:02;107.15;;;54.40;;
31537;SDS011;18147;51.952;6.146;2024-03-06T12:16:28;111.20;;;54.47;;
31537;SDS011;18147;51.952;6.146;2024-03-06T12:18:54;102.43;;;55.08;;
31537;SDS011;18147;51.952;6.146;2024-03-06T12:21:32;99.97;;;52.60;;
31537;SDS011;18147;51.952;6.146;2024-03-06T12:24:05;104.00;;;54.45;;
31537;SDS011;18147;51.952;6.146;2024-03-06T12:26:33;101.28;;;52.97;;
31537;SDS011;18147;51.952;6.146;2024-03-06T12:29:05;102.53;;;52.38;;
31537;SDS011;18147;51.952;6.146;2024-03-06T12:31:34;113.38;;;54.47;;
31537;SDS011;18147;51.952;6.146;2024-03-06T12:34:01;108.78;;;54.28;;
31537;SDS011;18147;51.952;6.146;2024-03-06T12:36:28;105.10;;;54.05;;
31537;SDS011;18147;51.952;6.146;2024-03-06T12:38:55;108.68;;;55.13;;
31537;SDS011;18147;51.952;6.146;2024-03-06T12:41:21;102.22;;;54.30;;
31537;SDS011;18147;51.952;6.146;2024-03-06T12:43:47;107.95;;;55.05;;
31537;SDS011;18147;51.952;6.146;2024-03-06T12:46:12;107.70;;;55.78;;
31537;SDS011;18147;51.952;6.146;2024-03-06T12:48:38;106.90;;;53.83;;
31537;SDS011;18147;51.952;6.146;2024-03-06T12:51:03;105.60;;;53.13;;
31537;SDS011;18147;51.952;6.146;2024-03-06T12:53:32;112.38;;;53.40;;
31537;SDS011;18147;51.952;6.146;2024-03-06T12:56:01;102.50;;;52.35;;
31537;SDS011;18147;51.952;6.146;2024-03-06T12:58:26;111.38;;;55.28;;
31537;SDS011;18147;51.952;6.146;2024-03-06T13:00:52;108.22;;;53.40;;
31537;SDS011;18147;51.952;6.146;2024-03-06T13:03:18;90.85;;;49.25;;
31537;SDS011;18147;51.952;6.146;2024-03-06T13:05:44;93.53;;;48.58;;
31537;SDS011;18147;51.952;6.146;2024-03-06T13:08:11;95.00;;;48.97;;
31537;SDS011;18147;51.952;6.146;2024-03-06T13:10:40;87.13;;;45.45;;
31537;SDS011;18147;51.952;6.146;2024-03-06T13:13:06;86.45;;;41.92;;
31537;SDS011;18147;51.952;6.146;2024-03-06T13:15:32;81.95;;;44.85;;
31537;SDS011;18147;51.952;6.146;2024-03-06T13:17:59;79.90;;;45.40;;
31537;SDS011;18147;51.952;6.146;2024-03-06T13:20:31;85.40;;;42.67;;
31537;SDS011;18147;51.952;6.146;2024-03-06T13:22:57;79.30;;;43.65;;
31537;SDS011;18147;51.952;6.146;2024-03-06T13:25:23;75.03;;;39.83;;
31537;SDS011;18147;51.952;6.146;2024-03-06T13:27:49;78.20;;;40.88;;
31537;SDS011;18147;51.952;6.146;2024-03-06T13:30:17;74.50;;;39.97;;
31537;SDS011;18147;51.952;6.146;2024-03-06T13:32:42;72.25;;;39.63;;
31537;SDS011;18147;51.952;6.146;2024-03-06T13:35:08;67.85;;;37.00;;
31537;SDS011;18147;51.952;6.146;2024-03-06T13:37:38;60.53;;;33.00;;
31537;SDS011;18147;51.952;6.146;2024-03-06T13:40:05;51.88;;;28.48;;
31537;SDS011;18147;51.952;6.146;2024-03-06T13:42:35;66.47;;;32.22;;
31537;SDS011;18147;51.952;6.146;2024-03-06T13:45:02;63.58;;;35.85;;
31537;SDS011;18147;51.952;6.146;2024-03-06T13:47:28;56.63;;;32.75;;
31537;SDS011;18147;51.952;6.146;2024-03-06T13:49:55;64.20;;;35.38;;
31537;SDS011;18147;51.952;6.146;2024-03-06T13:52:20;71.25;;;38.10;;
31537;SDS011;18147;51.952;6.146;2024-03-06T13:54:46;58.20;;;34.45;;
31537;SDS011;18147;51.952;6.146;2024-03-06T13:57:13;48.78;;;28.90;;
31537;SDS011;18147;51.952;6.146;2024-03-06T13:59:39;37.17;;;21.65;;
31537;SDS011;18147;51.952;6.146;2024-03-06T14:02:05;46.00;;;26.42;;
31537;SDS011;18147;51.952;6.146;2024-03-06T14:04:32;47.75;;;27.08;;
31537;SDS011;18147;51.952;6.146;2024-03-06T14:06:57;45.38;;;24.73;;
31537;SDS011;18147;51.952;6.146;2024-03-06T14:09:24;46.22;;;25.58;;
31537;SDS011;18147;51.952;6.146;2024-03-06T14:11:51;42.17;;;24.05;;